Time;durP1;ratioP1;P1;durP2;ratioP2;P2;SDS_P1;SDS_P2;PMS_P1;PMS_P2;Temp;Humidity;BMP_temperature;BMP_pressure;BME280_temperature;BME280_humidity;BME280_pressure;Samples;Min_cycle;Max_cycle;Signal;HPM_P1;HPM_P2
2022/08/18 00:02:20;;;;;;;36.17;26.15;;;;;;;18.94;100.00;101233.06;5016190;28;20021;-45
2022/08/18 00:04:46;;;;;;;40.35;27.85;;;;;;;18.92;100.00;101244.09;5016349;28;20032;-48
2022/08/18 00:07:15;;;;;;;37.72;27.30;;;;;;;18.90;100.00;101239.94;5016533;28;20033;-45
2022/08/18 00:09:40;;;;;;;37.67;27.60;;;;;;;18.89;100.00;101239.09;5016620;28;20032;-45
2022/08/18 00:12:18;;;;;;;40.75;26.30;;;;;;;18.88;100.00;101236.59;5032511;28;20426;-46
2022/08/18 00:14:44;;;;;;;39.28;27.50;;;;;;;18.86;100.00;101236.81;5030765;28;20041;-47
2022/08/18 00:17:10;;;;;;;39.00;27.08;;;;;;;18.84;100.00;101241.59;5015147;28;20022;-45
2022/08/18 00:19:35;;;;;;;36.33;27.05;;;;;;;18.82;100.00;101238.22;5013163;28;20600;-49
2022/08/18 00:22:00;;;;;;;36.97;26.92;;;;;;;18.83;100.00;101242.63;5031275;28;20029;-47
2022/08/18 00:24:25;;;;;;;35.08;26.88;;;;;;;18.85;100.00;101243.25;5035578;28;20031;-45
2022/08/18 00:26:51;;;;;;;37.38;27.05;;;;;;;18.84;100.00;101244.31;5035807;28;20029;-47
2022/08/18 00:29:16;;;;;;;34.20;26.60;;;;;;;18.77;100.00;101235.28;5024490;28;20025;-45
2022/08/18 00:31:42;;;;;;;37.25;27.20;;;;;;;18.75;100.00;101234.66;5020777;28;20025;-46
2022/08/18 00:34:07;;;;;;;34.97;27.33;;;;;;;18.75;100.00;101243.59;5033549;28;20035;-46
2022/08/18 00:36:33;;;;;;;35.60;26.27;;;;;;;18.71;100.00;101245.06;5024543;28;20083;-48
2022/08/18 00:38:59;;;;;;;35.50;26.20;;;;;;;18.72;100.00;101260.28;5016668;28;20436;-50
2022/08/18 00:41:25;;;;;;;35.90;26.17;;;;;;;18.73;100.00;101263.81;5016111;28;20282;-45
2022/08/18 00:43:51;;;;;;;34.42;25.58;;;;;;;18.79;100.00;101257.59;5031887;28;20036;-46
2022/08/18 00:46:20;;;;;;;40.10;25.17;;;;;;;18.81;100.00;101258.22;5013531;28;20082;-47
2022/08/18 00:48:47;;;;;;;34.67;24.73;;;;;;;18.85;100.00;101267.59;5014646;28;20178;-45
2022/08/18 00:51:42;;;;;;;33.60;23.90;;;;;;;18.87;100.00;101265.53;5014817;28;20025;-46
2022/08/18 00:54:17;;;;;;;32.55;24.38;;;;;;;18.85;100.00;101266.78;5030581;28;20044;-46
2022/08/18 00:56:47;;;;;;;34.20;24.67;;;;;;;18.81;100.00;101263.63;5034942;28;20025;-47
2022/08/18 00:59:21;;;;;;;36.67;24.83;;;;;;;18.75;100.00;101267.97;5033017;28;20794;-45
2022/08/18 01:01:50;;;;;;;35.20;25.73;;;;;;;18.68;100.00;101269.00;5017933;28;20042;-45
2022/08/18 01:04:27;;;;;;;33.67;24.77;;;;;;;18.72;100.00;101265.69;5024591;28;20432;-49
2022/08/18 01:06:57;;;;;;;36.85;25.42;;;;;;;18.66;100.00;101255.69;5029759;28;20214;-49
2022/08/18 01:09:22;;;;;;;41.55;26.48;;;;;;;18.64;100.00;101264.00;5013267;28;20033;-48
2022/08/18 01:11:50;;;;;;;36.53;26.23;;;;;;;18.63;100.00;101266.91;5021679;28;20039;-45
2022/08/18 01:14:17;;;;;;;37.03;26.92;;;;;;;18.61;100.00;101271.69;5014870;28;20120;-49
2022/08/18 01:22:28;;;;;;;37.20;26.85;;;;;;;18.54;100.00;101271.66;5034209;28;20052;-48
2022/08/18 01:27:42;;;;;;;40.75;26.70;;;;;;;18.47;100.00;101265.41;5015248;28;20040;-47
2022/08/18 01:30:11;;;;;;;38.83;27.45;;;;;;;18.41;100.00;101272.47;5013527;28;20029;-46
2022/08/18 01:32:38;;;;;;;38.65;26.58;;;;;;;18.38;100.00;101264.75;5014499;28;20578;-48
2022/08/18 01:35:07;;;;;;;35.85;25.92;;;;;;;18.36;100.00;101258.69;5027018;28;20031;-48
2022/08/18 01:37:33;;;;;;;38.08;26.70;;;;;;;18.32;100.00;101264.72;5023883;28;20043;-45
2022/08/18 01:39:58;;;;;;;36.55;26.60;;;;;;;18.28;100.00;101264.31;5029202;28;20491;-47
2022/08/18 01:42:23;;;;;;;37.70;26.73;;;;;;;18.23;100.00;101256.78;5030519;28;20480;-44
2022/08/18 01:44:50;;;;;;;33.60;25.55;;;;;;;18.20;100.00;101254.50;5014204;28;20041;-49
2022/08/18 01:47:17;;;;;;;39.10;26.98;;;;;;;18.19;100.00;101255.50;5025043;28;20269;-48
2022/08/18 01:49:42;;;;;;;38.67;25.88;;;;;;;18.18;100.00;101258.44;5018813;28;20029;-48
2022/08/18 01:52:09;;;;;;;36.10;25.45;;;;;;;18.17;100.00;101246.78;5012444;28;20029;-46
2022/08/18 01:54:35;;;;;;;34.15;24.45;;;;;;;18.19;100.00;101255.50;5013777;28;20448;-46
2022/08/18 01:57:00;;;;;;;38.22;24.98;;;;;;;18.19;100.00;101255.50;5014631;28;20440;-45
2022/08/18 01:59:26;;;;;;;32.50;24.08;;;;;;;18.19;100.00;101251.97;5013930;28;20496;-50
2022/08/18 02:01:55;;;;;;;33.47;23.27;;;;;;;18.20;100.00;101251.78;5013327;28;20041;-47
2022/08/18 02:04:27;;;;;;;33.15;24.77;;;;;;;18.16;100.00;101252.38;5012646;28;20861;-45
2022/08/18 02:06:54;;;;;;;30.60;23.38;;;;;;;18.12;100.00;101253.84;5031920;28;20025;-49
2022/08/18 02:09:21;;;;;;;36.22;23.73;;;;;;;18.07;100.00;101252.59;5028789;28;20108;-46
2022/08/18 02:11:46;;;;;;;33.88;24.40;;;;;;;18.09;100.00;101249.66;5014733;28;20048;-49
2022/08/18 02:14:11;;;;;;;30.83;23.70;;;;;;;18.04;100.00;101246.72;5014061;28;20048;-48
2022/08/18 02:16:36;;;;;;;33.13;23.83;;;;;;;18.00;100.00;101240.06;5021164;28;20070;-49
2022/08/18 02:19:02;;;;;;;32.50;23.55;;;;;;;17.93;100.00;101248.13;5033123;28;20483;-45
2022/08/18 02:21:27;;;;;;;35.10;23.67;;;;;;;17.88;100.00;101253.28;5015967;28;20083;-46
2022/08/18 02:23:53;;;;;;;34.50;22.80;;;;;;;17.83;100.00;101250.31;5014104;28;20025;-45
2022/08/18 02:26:18;;;;;;;35.10;23.17;;;;;;;17.80;100.00;101250.72;5013880;28;20044;-44
2022/08/18 02:28:44;;;;;;;32.63;24.05;;;;;;;17.74;100.00;101255.06;5013511;28;20250;-44
2022/08/18 02:31:17;;;;;;;34.72;24.75;;;;;;;17.74;100.00;101251.53;5013663;28;20036;-44
2022/08/18 02:33:43;;;;;;;33.53;23.77;;;;;;;17.68;100.00;101245.03;5012718;28;20029;-44
2022/08/18 02:36:10;;;;;;;35.03;24.60;;;;;;;17.69;100.00;101262.94;5014327;28;20243;-44
2022/08/18 02:38:36;;;;;;;39.42;23.83;;;;;;;17.65;100.00;101249.00;5016517;28;20329;-45
2022/08/18 02:41:05;;;;;;;31.65;23.58;;;;;;;17.65;100.00;101249.00;5022115;28;20494;-46
2022/08/18 02:43:31;;;;;;;31.52;22.92;;;;;;;17.66;100.00;101250.63;5024561;28;20033;-45
2022/08/18 02:45:57;;;;;;;36.13;23.33;;;;;;;17.66;100.00;101258.75;5034894;28;20032;-48
2022/08/18 02:48:34;;;;;;;30.08;22.23;;;;;;;17.67;100.00;101248.78;5027214;28;20025;-47
2022/08/18 02:51:00;;;;;;;30.25;22.13;;;;;;;17.64;100.00;101241.91;5022795;28;20025;-48
2022/08/18 02:53:27;;;;;;;35.58;22.70;;;;;;;17.63;100.00;101244.81;5037612;28;21217;-45
2022/08/18 02:55:52;;;;;;;36.53;21.85;;;;;;;17.62;100.00;101249.38;5036446;28;20495;-47
2022/08/18 02:58:19;;;;;;;33.33;22.20;;;;;;;17.64;100.00;101246.47;5024853;28;20036;-45
2022/08/18 03:00:45;;;;;;;29.25;22.48;;;;;;;17.62;100.00;101251.25;5016421;28;21011;-45
2022/08/18 03:03:12;;;;;;;33.85;22.67;;;;;;;17.62;100.00;101243.16;5016000;28;20029;-47
2022/08/18 03:05:37;;;;;;;31.38;22.05;;;;;;;17.60;100.00;101246.03;5032347;28;20018;-44
2022/08/18 03:08:03;;;;;;;31.85;22.92;;;;;;;17.61;100.00;101244.16;5018674;28;20841;-47
2022/08/18 03:10:28;;;;;;;32.95;23.48;;;;;;;17.58;100.00;101253.50;5017635;28;20025;-45
2022/08/18 03:12:53;;;;;;;33.45;22.10;;;;;;;17.55;100.00;101259.31;5031769;28;20025;-46
2022/08/18 03:15:19;;;;;;;32.05;21.92;;;;;;;17.49;100.00;101255.50;5020006;28;20037;-45
2022/08/18 03:17:44;;;;;;;31.35;22.27;;;;;;;17.48;100.00;101248.47;5019337;28;20047;-45
2022/08/18 03:20:10;;;;;;;34.75;22.52;;;;;;;17.48;100.00;101261.09;5016873;28;20037;-45
2022/08/18 03:22:36;;;;;;;32.88;23.15;;;;;;;17.42;100.00;101268.13;5032701;28;20112;-48
2022/08/18 03:25:02;;;;;;;31.73;22.42;;;;;;;17.42;100.00;101261.91;5027204;28;20091;-49
2022/08/18 03:27:28;;;;;;;33.42;22.67;;;;;;;17.42;100.00;101272.72;5037292;28;20044;-48
2022/08/18 03:29:53;;;;;;;32.80;22.98;;;;;;;17.38;100.00;101272.28;5017839;28;20037;-48
2022/08/18 03:32:19;;;;;;;31.52;22.30;;;;;;;17.35;100.00;101272.66;5015753;28;20014;-46
2022/08/18 03:34:44;;;;;;;32.70;23.15;;;;;;;17.30;100.00;101275.94;5016447;28;20036;-48
2022/08/18 03:37:09;;;;;;;36.33;23.42;;;;;;;17.31;100.00;101279.44;5016495;28;20321;-46
2022/08/18 03:39:35;;;;;;;35.88;23.10;;;;;;;17.30;100.00;101275.94;5020420;28;20392;-45
2022/08/18 03:42:00;;;;;;;31.98;22.67;;;;;;;17.31;100.00;101276.75;5023608;28;20104;-45
2022/08/18 03:44:29;;;;;;;35.90;22.35;;;;;;;17.28;100.00;101277.16;5016954;28;20100;-44
2022/08/18 03:46:54;;;;;;;30.13;21.08;;;;;;;17.29;100.00;101281.53;5015151;28;20060;-46
2022/08/18 03:49:20;;;;;;;29.75;21.83;;;;;;;17.30;100.00;101280.50;5028223;28;20423;-46
2022/08/18 03:51:46;;;;;;;31.42;21.40;;;;;;;17.34;100.00;101284.47;5018560;28;20017;-46
2022/08/18 03:54:14;;;;;;;28.65;21.23;;;;;;;17.29;100.00;101285.06;5016265;28;20022;-45
2022/08/18 03:56:40;;;;;;;27.50;20.35;;;;;;;17.32;100.00;101276.56;5016344;28;20322;-46
2022/08/18 03:59:21;;;;;;;30.05;21.80;;;;;;;17.32;100.00;101273.03;5016238;28;20017;-45
2022/08/18 04:01:48;;;;;;;29.10;21.50;;;;;;;17.35;100.00;101275.34;5015330;28;20507;-48
2022/08/18 04:04:18;;;;;;;29.13;21.38;;;;;;;17.36;100.00;101273.47;5017337;28;20025;-46
2022/08/18 04:06:58;;;;;;;27.65;20.20;;;;;;;17.36;100.00;101276.19;5036117;28;20171;-47
2022/08/18 04:09:27;;;;;;;26.25;20.35;;;;;;;17.31;100.00;101282.16;5036225;28;20020;-47
2022/08/18 04:11:53;;;;;;;28.33;21.25;;;;;;;17.27;100.00;101268.22;5035504;28;20352;-46
2022/08/18 04:14:23;;;;;;;27.52;21.27;;;;;;;17.20;100.00;101275.44;5027902;28;20090;-51
2022/08/18 04:16:49;;;;;;;30.93;21.07;;;;;;;17.18;100.00;101273.97;5023379;28;20480;-48
2022/08/18 04:19:16;;;;;;;33.95;21.70;;;;;;;17.15;100.00;101273.31;5025090;28;20061;-46
2022/08/18 04:21:42;;;;;;;30.95;22.48;;;;;;;17.19;100.00;101271.06;5015812;28;20029;-47
2022/08/18 04:24:10;;;;;;;33.78;22.50;;;;;;;17.21;100.00;101269.00;5024406;28;20614;-46
2022/08/18 04:26:41;;;;;;;31.98;22.92;;;;;;;17.13;100.00;101266.44;5025497;28;20116;-51
2022/08/18 04:29:09;;;;;;;29.35;22.65;;;;;;;17.08;100.00;101277.00;5014847;28;20037;-48
2022/08/18 04:31:34;;;;;;;31.48;22.92;;;;;;;17.07;100.00;101273.44;5016020;28;20095;-46
2022/08/18 04:34:00;;;;;;;34.55;23.20;;;;;;;17.07;100.00;101281.53;5029913;28;20507;-45
2022/08/18 04:36:27;;;;;;;30.45;22.25;;;;;;;17.10;100.00;101281.16;5016175;28;20110;-46
2022/08/18 04:38:53;;;;;;;32.47;22.25;;;;;;;17.09;100.00;101276.81;5015158;28;20025;-48
2022/08/18 04:41:22;;;;;;;36.53;22.95;;;;;;;17.03;100.00;101277.56;5017237;28;20049;-47
2022/08/18 04:43:49;;;;;;;32.88;24.23;;;;;;;17.01;100.00;101276.09;5028964;28;20540;-46
2022/08/18 04:46:14;;;;;;;34.30;23.25;;;;;;;17.00;100.00;101282.50;5027882;28;20029;-48
2022/08/18 04:48:40;;;;;;;30.58;22.40;;;;;;;16.97;100.00;101278.31;5034043;28;20036;-49
2022/08/18 04:51:09;;;;;;;35.63;23.02;;;;;;;16.92;100.00;101286.16;5020229;28;20475;-46
2022/08/18 04:53:44;;;;;;;33.75;23.13;;;;;;;16.89;100.00;101287.41;5019491;28;20048;-50
2022/08/18 04:56:20;;;;;;;35.15;23.67;;;;;;;16.89;100.00;101289.25;5031442;28;20021;-45
2022/08/18 04:58:51;;;;;;;33.13;23.42;;;;;;;16.89;100.00;101292.78;5015153;28;20306;-47
2022/08/18 05:01:17;;;;;;;38.08;24.00;;;;;;;16.93;100.00;101294.06;5014738;28;20392;-47
2022/08/18 05:03:43;;;;;;;35.15;23.67;;;;;;;16.93;100.00;101291.38;5014035;28;20099;-45
2022/08/18 05:06:09;;;;;;;33.90;23.73;;;;;;;16.96;100.00;101293.69;5014279;28;20749;-46
2022/08/18 05:08:34;;;;;;;35.15;23.63;;;;;;;16.97;100.00;101294.50;5015159;28;20122;-44
2022/08/18 05:11:00;;;;;;;36.35;23.98;;;;;;;16.98;100.00;101293.50;5014386;28;20113;-45
2022/08/18 05:13:25;;;;;;;34.42;23.58;;;;;;;16.96;100.00;101288.28;5014707;28;20458;-45
2022/08/18 05:15:56;;;;;;;32.53;23.20;;;;;;;16.95;100.00;101293.88;5025457;28;20132;-49
2022/08/18 05:18:25;;;;;;;31.30;23.38;;;;;;;16.92;100.00;101291.56;5030537;28;20077;-46
2022/08/18 05:20:51;;;;;;;34.15;23.23;;;;;;;16.89;100.00;101290.09;5014505;28;20245;-46
2022/08/18 05:23:18;;;;;;;33.72;23.98;;;;;;;16.88;100.00;101291.09;5015249;28;20037;-44
2022/08/18 05:25:43;;;;;;;36.97;24.40;;;;;;;16.88;100.00;101287.59;5025845;28;20500;-47
2022/08/18 05:28:09;;;;;;;35.30;24.67;;;;;;;16.96;100.00;101291.00;5022554;28;20523;-47
2022/08/18 05:30:35;;;;;;;37.05;23.88;;;;;;;16.98;100.00;101287.28;5028043;28;20156;-46
2022/08/18 05:33:02;;;;;;;32.40;24.05;;;;;;;17.06;100.00;101297.94;5016987;28;20381;-46
2022/08/18 05:35:41;;;;;;;39.13;23.67;;;;;;;17.15;100.00;101302.16;5014049;28;20033;-48
2022/08/18 05:38:28;;;;;;;34.72;23.80;;;;;;;17.22;100.00;101291.44;5014538;28;20469;-49
2022/08/18 05:41:07;;;;;;;37.60;24.23;;;;;;;17.27;100.00;101303.31;5014976;28;20132;-48
2022/08/18 05:43:35;;;;;;;36.20;23.10;;;;;;;17.32;100.00;101300.03;5033062;28;20499;-46
2022/08/18 05:46:04;;;;;;;37.33;23.38;;;;;;;17.33;100.00;101301.72;5027461;28;20029;-46
2022/08/18 05:48:30;;;;;;;33.53;22.38;;;;;;;17.34;100.00;101301.53;5032953;28;20024;-46
2022/08/18 05:50:56;;;;;;;31.13;22.67;;;;;;;17.41;100.00;101295.31;5025681;28;20028;-47
2022/08/18 05:56:45;;;;;;;31.92;22.92;;;;;;;17.47;100.00;101308.88;5014294;28;20538;-46
2022/08/18 05:58:58;;;;;;;31.60;22.30;;;;;;;17.52;100.00;101314.53;5020454;28;20048;-45
2022/08/18 06:01:33;;;;;;;31.30;22.77;;;;;;;17.57;100.00;101313.13;5033255;28;20731;-48
2022/08/18 06:04:16;;;;;;;33.00;21.80;;;;;;;17.63;100.00;101321.25;5016365;28;20091;-45
2022/08/18 06:06:43;;;;;;;30.50;22.15;;;;;;;17.66;100.00;101314.63;5014291;28;20040;-46
2022/08/18 06:09:16;;;;;;;32.13;21.52;;;;;;;17.68;100.00;101321.53;5013490;28;20064;-46
2022/08/18 06:11:42;;;;;;;29.98;21.45;;;;;;;17.72;100.00;101321.97;5025651;28;20510;-48
2022/08/18 06:14:07;;;;;;;30.67;21.48;;;;;;;17.79;100.00;101322.84;5033789;28;20056;-47
2022/08/18 06:16:48;;;;;;;31.98;21.98;;;;;;;17.84;100.00;101323.09;5034763;28;20047;-46
2022/08/18 06:19:42;;;;;;;29.70;20.98;;;;;;;17.91;100.00;101323.16;5016882;28;20056;-46
2022/08/18 06:22:14;;;;;;;29.75;20.98;;;;;;;17.99;100.00;101327.56;5022492;28;20525;-47
2022/08/18 06:24:45;;;;;;;30.90;20.63;;;;;;;18.05;100.00;101329.47;5024677;28;20025;-48
2022/08/18 06:27:39;;;;;;;28.02;20.42;;;;;;;18.11;100.00;101327.84;5020416;28;20656;-45
2022/08/18 06:30:21;;;;;;;26.90;20.25;;;;;;;18.17;100.00;101332.47;5030180;28;20025;-46
2022/08/18 06:33:20;;;;;;;35.60;20.40;;;;;;;18.18;100.00;101324.16;5037216;28;20029;-45
2022/08/18 06:35:53;;;;;;;28.05;20.25;;;;;;;18.15;100.00;101323.72;5025263;28;20084;-47
2022/08/18 06:38:44;;;;;;;28.77;20.23;;;;;;;18.18;100.00;101326.84;5016303;28;20037;-48
2022/08/18 06:41:34;;;;;;;26.13;20.63;;;;;;;18.25;100.00;101327.72;5017985;28;20088;-47
2022/08/18 06:44:27;;;;;;;32.50;19.98;;;;;;;18.34;100.00;101332.97;5017602;28;20029;-45
2022/08/18 06:47:04;;;;;;;29.27;20.48;;;;;;;18.43;100.00;101342.56;5017290;28;20029;-48
2022/08/18 06:50:07;;;;;;;30.15;20.67;;;;;;;18.47;100.00;101345.72;5016881;28;20484;-47
2022/08/18 06:52:38;;;;;;;30.77;20.85;;;;;;;18.54;100.00;101343.88;5018664;28;20123;-46
2022/08/18 06:55:16;;;;;;;24.67;19.33;;;;;;;18.61;100.00;101334.75;5024503;28;20043;-48
2022/08/18 06:57:57;;;;;;;27.48;18.38;;;;;;;18.70;100.00;101337.25;5037818;28;20638;-45
2022/08/18 07:00:30;;;;;;;26.45;18.10;;;;;;;18.85;100.00;101337.16;5019661;28;20130;-45
2022/08/18 07:03:16;;;;;;;25.20;19.15;;;;;;;18.92;100.00;101343.41;5016827;28;20091;-46
2022/08/18 07:06:03;;;;;;;26.77;18.83;;;;;;;19.00;100.00;101341.34;5018023;28;20025;-48
2022/08/18 07:08:33;;;;;;;29.75;18.08;;;;;;;19.13;100.00;101348.66;5037438;28;20562;-45
2022/08/18 07:11:16;;;;;;;21.05;17.20;;;;;;;19.26;100.00;101353.25;5037586;28;20036;-47
2022/08/18 07:13:44;;;;;;;24.65;16.35;;;;;;;19.33;100.00;101354.13;5030155;28;20025;-47
2022/08/18 07:16:30;;;;;;;21.50;16.70;;;;;;;19.46;100.00;101350.56;5015450;28;20029;-47
2022/08/18 07:19:15;;;;;;;23.08;15.23;;;;;;;19.60;100.00;101345.16;5016874;28;20523;-47
2022/08/18 07:21:42;;;;;;;20.05;15.48;;;;;;;19.78;100.00;101352.69;5016691;28;20072;-48
2022/08/18 07:24:32;;;;;;;22.75;15.15;;;;;;;19.98;100.00;101347.25;5036115;28;20582;-46
2022/08/18 07:26:57;;;;;;;20.92;12.80;;;;;;;20.18;100.00;101355.31;5024306;28;20021;-50
2022/08/18 07:29:22;;;;;;;17.40;13.27;;;;;;;20.19;100.00;101352.41;5015639;28;20609;-45
2022/08/18 07:31:52;;;;;;;17.98;13.38;;;;;;;20.34;100.00;101348.63;5021854;28;20268;-45
2022/08/18 07:34:36;;;;;;;22.23;11.93;;;;;;;20.54;100.00;101351.25;5025023;28;20021;-47
2022/08/18 07:37:07;;;;;;;17.60;12.35;;;;;;;20.78;100.00;101349.72;5034811;28;20883;-49
2022/08/18 07:39:50;;;;;;;17.73;11.73;;;;;;;20.81;100.00;101352.00;5017239;28;20041;-48
2022/08/18 07:42:30;;;;;;;16.27;11.70;;;;;;;20.86;100.00;101349.47;5016638;28;20036;-47
2022/08/18 07:45:14;;;;;;;16.53;11.70;;;;;;;21.03;100.00;101353.31;5015963;28;20091;-46
2022/08/18 07:47:52;;;;;;;20.25;12.50;;;;;;;20.99;100.00;101357.50;5016001;28;20025;-50
2022/08/18 07:50:18;;;;;;;15.82;9.68;;;;;;;21.21;100.00;101346.31;5015850;28;20472;-47
2022/08/18 07:53:12;;;;;;;10.68;8.35;;;;;;;21.30;100.00;101355.03;5016186;28;20014;-49
2022/08/18 07:55:40;;;;;;;12.13;7.80;;;;;;;21.24;100.00;101352.13;5019204;28;20029;-45
2022/08/18 07:58:11;;;;;;;11.45;7.05;;;;;;;21.29;100.00;101354.19;5019909;28;20078;-47
2022/08/18 08:00:47;;;;;;;8.73;6.95;;;;;;;21.37;100.00;101353.09;5020041;28;20044;-48
2022/08/18 08:03:30;;;;;;;7.75;5.35;;;;;;;21.64;100.00;101350.19;5016411;28;20033;-46
2022/08/18 08:06:21;;;;;;;7.07;4.40;;;;;;;21.98;100.00;101348.84;5034611;28;20043;-49
2022/08/18 08:09:11;;;;;;;9.20;4.72;;;;;;;22.34;100.00;101353.47;5028805;28;20053;-45
2022/08/18 08:11:59;;;;;;;5.93;4.10;;;;;;;22.67;100.00;101357.69;5034119;28;20029;-47
2022/08/18 08:14:41;;;;;;;11.18;6.38;;;;;;;22.79;100.00;101359.63;5021108;28;20029;-46
2022/08/18 08:17:23;;;;;;;7.70;6.05;;;;;;;22.62;100.00;101354.00;5025332;28;20033;-45
2022/08/18 08:19:54;;;;;;;7.15;5.50;;;;;;;22.42;100.00;101356.94;5036778;28;20407;-49
2022/08/18 08:22:22;;;;;;;7.80;4.82;;;;;;;22.07;100.00;101355.63;5018256;28;20061;-45
2022/08/18 08:25:11;;;;;;;8.13;4.70;;;;;;;22.23;100.00;101356.09;5014963;28;20036;-46
2022/08/18 08:27:55;;;;;;;10.75;4.45;;;;;;;22.31;100.00;101351.22;5027877;28;20096;-47
2022/08/18 08:30:23;;;;;;;8.15;4.75;;;;;;;22.50;100.00;101356.66;5027130;28;20048;-46
2022/08/18 08:33:01;;;;;;;4.95;4.30;;;;;;;22.67;100.00;101354.13;5030747;28;20017;-47
2022/08/18 08:35:38;;;;;;;6.78;3.90;;;;;;;22.61;100.00;101364.06;5016659;28;20331;-46
2022/08/18 08:38:13;;;;;;;7.05;4.30;;;;;;;22.42;100.00;101371.41;5025299;28;20242;-49
2022/08/18 08:41:21;;;;;;;7.60;3.72;;;;;;;22.48;100.00;101375.94;5030017;28;20048;-48
2022/08/18 08:44:01;;;;;;;5.45;4.10;;;;;;;22.90;100.00;101369.75;4951543;28;20033;-47
2022/08/18 08:46:32;;;;;;;7.67;3.60;;;;;;;23.24;100.00;101368.25;5029331;28;20048;-47
2022/08/18 08:49:10;;;;;;;;;;;;;;;23.42;100.00;101369.22;5024147;28;20283;-47
2022/08/18 08:51:41;;;;;;;5.90;3.40;;;;;;;23.06;100.00;101366.41;5013003;28;19921;-46
2022/08/18 08:54:16;;;;;;;5.30;3.42;;;;;;;22.79;100.00;101371.34;5011636;28;20564;-46
2022/08/18 08:56:46;;;;;;;6.97;3.40;;;;;;;22.98;100.00;101376.75;5015351;28;20017;-45
2022/08/18 08:59:16;;;;;;;5.27;3.47;;;;;;;23.30;100.00;101376.53;5014814;28;20178;-46
2022/08/18 09:01:45;;;;;;;5.18;3.70;;;;;;;23.56;97.62;101384.31;5014874;28;20392;-45
2022/08/18 09:04:35;;;;;;;4.55;3.83;;;;;;;23.75;99.58;101376.03;5012879;28;20021;-46
2022/08/18 09:07:18;;;;;;;7.38;3.80;;;;;;;24.11;99.71;101376.88;5038172;28;20435;-47
2022/08/18 09:09:55;;;;;;;6.85;3.30;;;;;;;24.31;96.58;101385.53;5034358;28;20025;-48
2022/08/18 09:12:53;;;;;;;5.28;2.90;;;;;;;24.30;92.38;101380.31;5025162;28;20288;-46
2022/08/18 09:15:25;;;;;;;4.75;3.03;;;;;;;23.95;93.75;101373.00;5020962;28;20025;-48
2022/08/18 09:18:07;;;;;;;7.13;3.20;;;;;;;23.73;93.68;101386.34;5011693;28;20515;-46
2022/08/18 09:21:07;;;;;;;3.85;3.30;;;;;;;23.68;96.82;101381.59;5029962;28;20097;-50
2022/08/18 09:23:40;;;;;;;5.32;3.22;;;;;;;23.95;97.35;101378.44;4963199;28;20565;-45
2022/08/18 09:26:44;;;;;;;3.65;3.05;;;;;;;23.94;95.53;101385.78;5030207;28;20013;-50
2022/08/18 09:29:22;;;;;;;6.30;3.55;;;;;;;23.56;96.44;101380.75;4991892;28;20045;-46
2022/08/18 09:31:48;;;;;;;4.80;3.47;;;;;;;23.42;95.54;101382.84;5033107;28;20031;-49
2022/08/18 09:34:22;;;;;;;5.95;4.00;;;;;;;23.43;99.10;101379.06;5018090;28;20281;-49
2022/08/18 09:37:00;;;;;;;4.75;3.85;;;;;;;23.42;95.59;101383.69;5030512;28;20460;-47
2022/08/18 09:42:25;;;;;;;6.80;4.07;;;;;;;23.68;97.04;101373.41;5018921;28;20036;-47
2022/08/18 09:44:50;;;;;;;7.40;3.88;;;;;;;23.84;97.56;101374.63;5032676;28;20024;-49
2022/08/18 09:47:23;;;;;;;10.00;5.00;;;;;;;23.84;95.16;101371.91;5022781;28;20035;-47
2022/08/18 09:49:54;;;;;;;6.97;4.88;;;;;;;23.86;94.65;101371.66;5024074;28;20504;-47
2022/08/18 09:52:22;;;;;;;9.77;5.10;;;;;;;23.67;91.56;101368.19;5018924;28;20021;-46
2022/08/18 09:55:16;;;;;;;7.50;4.97;;;;;;;23.86;97.56;101371.66;5023598;28;20029;-48
2022/08/18 09:57:43;;;;;;;7.13;5.25;;;;;;;23.96;90.91;101371.91;5000789;28;20136;-50
2022/08/18 10:00:12;;;;;;;9.65;5.00;;;;;;;23.96;91.89;101370.00;5030477;28;20100;-46
2022/08/18 10:02:41;;;;;;;8.37;5.20;;;;;;;23.80;93.33;101376.16;5014912;28;20049;-50
2022/08/18 10:05:18;;;;;;;7.25;5.38;;;;;;;23.65;95.91;101376.63;5034049;28;20025;-50
2022/08/18 10:08:02;;;;;;;8.88;5.78;;;;;;;23.69;98.73;101377.78;5023159;28;20028;-50
2022/08/18 10:10:43;;;;;;;9.10;6.20;;;;;;;23.71;98.00;101377.56;5029447;28;20029;-50
2022/08/18 10:13:23;;;;;;;8.35;6.20;;;;;;;23.94;97.18;101371.31;5021701;28;20167;-47
2022/08/18 10:16:07;;;;;;;8.63;6.55;;;;;;;24.37;94.06;101368.19;5038305;28;20766;-46
2022/08/18 10:18:42;;;;;;;9.93;6.70;;;;;;;24.52;92.09;101362.19;5034325;28;20106;-49
2022/08/18 10:21:29;;;;;;;6.95;6.30;;;;;;;25.04;94.75;101365.97;5032617;28;20022;-50
2022/08/18 10:24:03;;;;;;;6.90;6.00;;;;;;;25.43;91.00;101360.66;5029556;28;20020;-48
2022/08/18 10:26:28;;;;;;;9.32;6.60;;;;;;;25.55;83.77;101349.66;5030052;28;20466;-48
2022/08/18 10:28:58;;;;;;;7.80;5.50;;;;;;;25.71;84.43;101365.19;5030651;28;20060;-49
2022/08/18 10:31:24;;;;;;;6.03;5.20;;;;;;;25.87;79.25;101361.63;5019572;28;20320;-48
2022/08/18 10:33:58;;;;;;;6.88;5.80;;;;;;;26.03;81.70;101357.22;5030899;28;20025;-48
2022/08/18 10:36:50;;;;;;;6.57;5.68;;;;;;;26.26;81.37;101349.88;5030477;28;20037;-47
2022/08/18 10:39:23;;;;;;;6.28;5.68;;;;;;;26.26;77.04;101355.34;5029419;28;20440;-49
2022/08/18 10:42:01;;;;;;;6.30;5.00;;;;;;;26.22;80.28;101348.72;5026260;28;20029;-50
2022/08/18 10:44:30;;;;;;;6.18;5.00;;;;;;;25.86;80.41;101350.94;5028220;28;20465;-50
2022/08/18 10:46:58;;;;;;;7.30;5.85;;;;;;;25.46;80.07;101349.25;5032026;28;20115;-51
2022/08/18 10:49:27;;;;;;;5.25;4.75;;;;;;;25.00;79.37;101343.78;5032772;28;20112;-51
2022/08/18 10:52:00;;;;;;;5.72;5.07;;;;;;;24.84;81.95;101363.69;5019113;28;20668;-48
2022/08/18 10:54:59;;;;;;;5.75;4.50;;;;;;;24.77;85.73;101363.81;5021336;28;20041;-46
2022/08/18 10:58:04;;;;;;;7.00;4.82;;;;;;;24.70;87.74;101358.50;5023234;28;20575;-45
2022/08/18 11:00:47;;;;;;;7.47;4.90;;;;;;;24.66;86.78;101360.06;5024069;28;20045;-48
2022/08/18 11:03:46;;;;;;;6.75;5.20;;;;;;;24.70;85.61;101361.22;5030658;28;20044;-49
2022/08/18 11:06:18;;;;;;;7.55;5.10;;;;;;;24.91;82.70;101359.72;5026545;28;20036;-47
2022/08/18 11:08:47;;;;;;;6.00;4.88;;;;;;;25.40;81.10;101359.25;5029284;28;20036;-46
2022/08/18 11:11:18;;;;;;;7.53;6.18;;;;;;;25.86;78.25;101350.94;5037529;28;20179;-48
2022/08/18 11:14:00;;;;;;;7.25;6.65;;;;;;;26.31;75.43;101358.16;5027577;28;20025;-45
2022/08/18 11:16:41;;;;;;;8.65;6.70;;;;;;;26.42;72.17;101357.19;5033724;28;20075;-47
2022/08/18 11:19:11;;;;;;;6.70;6.05;;;;;;;26.52;71.01;101336.50;5024636;28;20136;-46
2022/08/18 11:21:36;;;;;;;7.80;5.07;;;;;;;26.86;70.59;101339.09;5023053;28;20454;-49
2022/08/18 11:24:04;;;;;;;7.60;5.00;;;;;;;26.86;71.95;101325.38;5037048;28;20032;-48
2022/08/18 11:26:33;;;;;;;6.40;5.00;;;;;;;26.49;71.01;101335.06;5017252;28;20029;-50
2022/08/18 11:28:59;;;;;;;6.07;4.80;;;;;;;25.98;70.74;101334.44;5017516;28;20043;-48
2022/08/18 11:31:24;;;;;;;7.35;4.80;;;;;;;25.61;74.09;101327.59;5016113;28;20026;-51
2022/08/18 11:33:50;;;;;;;8.73;5.68;;;;;;;25.43;77.07;101314.19;5016663;28;20352;-50
2022/08/18 11:36:15;;;;;;;5.60;5.07;;;;;;;25.34;80.37;101318.38;5016109;28;20098;-48
2022/08/18 11:38:53;;;;;;;5.63;5.10;;;;;;;25.22;82.30;101312.97;5017405;28;20021;-50
2022/08/18 11:41:25;;;;;;;6.05;5.20;;;;;;;25.04;80.65;101317.59;5016721;28;20668;-49
2022/08/18 11:43:58;;;;;;;6.60;5.10;;;;;;;24.85;79.46;101327.91;5026518;28;20037;-47
2022/08/18 11:46:37;;;;;;;6.40;5.15;;;;;;;24.76;82.20;101315.72;5019099;28;20516;-47
2022/08/18 11:49:32;;;;;;;6.50;4.80;;;;;;;24.81;82.40;101315.00;5017598;28;20438;-47